createdAt,value
2018-05-11T00:00:17.093Z,79.45
2018-05-11T00:01:17.055Z,79.71
2018-05-11T00:02:17.052Z,79.51
2018-05-11T00:03:17.092Z,79.89
2018-05-11T00:04:17.167Z,79.97
2018-05-11T00:05:17.073Z,79.75
2018-05-11T00:06:17.094Z,79.97
2018-05-11T00:07:17.074Z,80.08
2018-05-11T00:08:17.036Z,80.25
2018-05-11T00:10:17.111Z,79.86
2018-05-11T00:11:17.051Z,80.31
2018-05-11T00:12:17.055Z,80.33
2018-05-11T00:13:17.073Z,80.56
2018-05-11T00:14:17.037Z,80.44
2018-05-11T00:15:17.037Z,80.25
2018-05-11T00:16:17.048Z,80.07
2018-05-11T00:17:17.049Z,80.91
2018-05-11T00:18:17.059Z,80.67
2018-05-11T00:19:17.063Z,80.81
2018-05-11T00:20:17.060Z,80.93
2018-05-11T00:21:17.046Z,81.15
2018-05-11T00:22:17.052Z,80.91
2018-05-11T00:23:17.071Z,80.9
2018-05-11T00:24:17.066Z,80.36
2018-05-11T00:25:17.048Z,80.21
2018-05-11T00:26:17.045Z,80.37
2018-05-11T00:27:17.529Z,79.89
2018-05-11T00:28:17.085Z,80.06
2018-05-11T00:29:17.038Z,81.06
2018-05-11T00:30:17.078Z,80.59
2018-05-11T00:31:17.051Z,80.42
2018-05-11T00:32:17.070Z,80.32
2018-05-11T00:33:17.054Z,80.16
2018-05-11T00:34:17.099Z,80.22
2018-05-11T00:35:17.074Z,80.18
2018-05-11T00:36:17.109Z,80.3
2018-05-11T00:37:17.491Z,80.19
2018-05-11T00:38:17.105Z,80.71
2018-05-11T00:39:17.075Z,80.54
2018-05-11T00:40:17.088Z,79.96
2018-05-11T00:41:17.106Z,80.01
2018-05-11T00:42:17.085Z,80.3
2018-05-11T00:43:17.072Z,80.17
2018-05-11T00:44:17.093Z,80.08
2018-05-11T00:45:17.107Z,79.97
2018-05-11T00:46:17.186Z,79.83
2018-05-11T00:47:17.379Z,80.03
2018-05-11T00:48:17.090Z,80.08
2018-05-11T00:49:17.081Z,80.31
2018-05-11T00:50:17.095Z,80.11
2018-05-11T00:51:17.081Z,80.28
2018-05-11T00:52:17.206Z,80.51
2018-05-11T00:53:17.090Z,80.34
2018-05-11T00:54:17.082Z,80.15
2018-05-11T00:55:17.138Z,80.1
2018-05-11T00:56:17.074Z,79.77
2018-05-11T00:57:17.088Z,79.7
2018-05-11T00:58:17.109Z,79.71
2018-05-11T00:59:17.068Z,79.88
2018-05-11T01:00:17.136Z,80.16
2018-05-11T01:01:17.088Z,80.39
2018-05-11T01:02:17.148Z,80.12
2018-05-11T01:03:17.145Z,80.02
2018-05-11T01:04:17.085Z,79.91
2018-05-11T01:05:17.119Z,79.89
2018-05-11T01:06:17.220Z,79.83
2018-05-11T01:07:17.205Z,80.33
2018-05-11T01:08:17.080Z,80.24
2018-05-11T01:09:17.193Z,80.44
2018-05-11T01:10:17.088Z,80.56
2018-05-11T01:11:17.120Z,80.15
2018-05-11T01:12:17.416Z,80.3
2018-05-11T01:13:17.075Z,80.18
2018-05-11T01:14:17.145Z,80.18
2018-05-11T01:15:17.135Z,79.92
2018-05-11T01:16:17.172Z,79.75
2018-05-11T01:17:17.102Z,79.63
2018-05-11T01:18:17.119Z,80.15
2018-05-11T01:19:17.103Z,80.02
2018-05-11T01:20:17.103Z,80.3
2018-05-11T01:21:17.119Z,80.17
2018-05-11T01:22:17.131Z,79.76
2018-05-11T01:23:17.108Z,79.94
2018-05-11T01:24:17.121Z,79.63
2018-05-11T01:25:17.097Z,79.56
2018-05-11T01:26:17.109Z,79.49
2018-05-11T01:27:17.519Z,79.62
2018-05-11T01:28:17.099Z,80.19
2018-05-11T01:29:17.109Z,79.94
2018-05-11T01:30:17.097Z,80.14
2018-05-11T01:31:17.097Z,80.38
2018-05-11T01:32:17.114Z,79.83
2018-05-11T01:33:17.114Z,79.6
2018-05-11T01:34:17.109Z,80.06
2018-05-11T01:35:17.119Z,79.65
2018-05-11T01:36:17.138Z,79.58
2018-05-11T01:37:17.107Z,79.79
2018-05-11T01:38:17.101Z,79.56
2018-05-11T01:39:17.105Z,79.53
2018-05-11T01:40:17.219Z,79.46
2018-05-11T01:41:17.115Z,79.6
2018-05-11T01:42:17.643Z,79.67
2018-05-11T01:43:17.174Z,79.7
2018-05-11T01:44:17.109Z,79.53
2018-05-11T01:45:17.103Z,79.16
2018-05-11T01:46:17.110Z,79.16
2018-05-11T01:47:17.115Z,79.35
2018-05-11T01:48:17.237Z,79.61
2018-05-11T01:49:17.147Z,79.36
2018-05-11T01:50:17.128Z,79.29
2018-05-11T01:51:17.111Z,79.59
2018-05-11T01:52:17.131Z,79.55
2018-05-11T01:53:17.101Z,79.53
2018-05-11T01:54:17.109Z,79.68
2018-05-11T01:55:17.133Z,79.56
2018-05-11T01:56:17.122Z,79.27
2018-05-11T01:57:17.129Z,79.39
2018-05-11T01:58:17.136Z,79.87
2018-05-11T01:59:17.107Z,80.1
2018-05-11T02:00:17.122Z,79.9
2018-05-11T02:01:17.103Z,79.6
2018-05-11T02:02:17.110Z,79.5
2018-05-11T02:03:17.228Z,79.33
2018-05-11T02:04:17.175Z,79.76
2018-05-11T02:05:17.101Z,79.66
2018-05-11T02:06:17.185Z,79.82
2018-05-11T02:07:17.146Z,79.46
2018-05-11T02:08:17.171Z,79.71
2018-05-11T02:09:17.143Z,79.64
2018-05-11T02:10:17.171Z,79.94
2018-05-11T02:11:17.183Z,79.7
2018-05-11T02:12:17.122Z,79.93
2018-05-11T02:13:17.126Z,79.61
2018-05-11T02:14:17.135Z,79.54
2018-05-11T02:15:17.101Z,79.67
2018-05-11T02:16:17.112Z,79.46
2018-05-11T02:17:17.116Z,79.89
2018-05-11T02:18:17.135Z,79.9
2018-05-11T02:19:17.123Z,79.58
2018-05-11T02:20:17.121Z,79.46
2018-05-11T02:21:17.134Z,79.4
2018-05-11T02:22:17.130Z,79.59
2018-05-11T02:23:17.132Z,79.75
2018-05-11T02:24:17.136Z,79.6
2018-05-11T02:25:17.128Z,79.65
2018-05-11T02:26:17.143Z,79.82
2018-05-11T02:27:17.120Z,79.57
2018-05-11T02:28:17.173Z,79.96
2018-05-11T02:29:17.116Z,79.69
2018-05-11T02:30:17.244Z,80.07
2018-05-11T02:31:17.106Z,79.7
2018-05-11T02:32:17.143Z,79.99
2018-05-11T02:33:17.151Z,79.9
2018-05-11T02:34:17.143Z,80.32
2018-05-11T02:35:17.139Z,79.92
2018-05-11T02:36:17.163Z,80.47
2018-05-11T02:37:17.138Z,80.49
2018-05-11T02:38:17.127Z,80.42
2018-05-11T02:39:17.148Z,80.26
2018-05-11T02:40:17.123Z,79.93
2018-05-11T02:41:17.130Z,79.89
2018-05-11T02:42:17.148Z,80.33
2018-05-11T02:43:17.132Z,80.3
2018-05-11T02:44:17.124Z,80.23
2018-05-11T02:45:17.122Z,79.96
2018-05-11T02:46:17.162Z,79.8
2018-05-11T02:47:17.138Z,80.16
2018-05-11T02:48:17.128Z,80.04
2018-05-11T02:49:17.129Z,79.83
2018-05-11T02:50:17.130Z,79.74
2018-05-11T02:51:17.241Z,79.83
2018-05-11T02:52:17.170Z,79.87
2018-05-11T02:53:17.254Z,79.96
2018-05-11T02:54:17.131Z,79.7
2018-05-11T02:55:17.127Z,80.04
2018-05-11T02:56:17.143Z,79.92
2018-05-11T02:57:17.159Z,80.3
2018-05-11T02:58:17.170Z,80.07
2018-05-11T02:59:17.181Z,80.56
2018-05-11T03:00:17.155Z,80.48
2018-05-11T03:01:17.227Z,80.57
2018-05-11T03:02:17.132Z,80.45
2018-05-11T03:03:17.155Z,80.75
2018-05-11T03:04:17.200Z,80.75
2018-05-11T03:05:17.139Z,80.75
2018-05-11T03:06:17.177Z,80.69
2018-05-11T03:07:17.227Z,80.59
2018-05-11T03:08:17.240Z,80.39
2018-05-11T03:09:17.146Z,80.43
2018-05-11T03:10:17.170Z,80.46
2018-05-11T03:11:17.159Z,80.31
2018-05-11T03:12:17.201Z,80.88
2018-05-11T03:13:17.250Z,80.85
2018-05-11T03:14:17.155Z,80.64
2018-05-11T03:15:17.163Z,80.8
2018-05-11T03:16:17.151Z,80.83
2018-05-11T03:17:17.152Z,80.96
2018-05-11T03:18:17.126Z,80.71
2018-05-11T03:19:17.147Z,80.99
2018-05-11T03:20:17.175Z,80.53
2018-05-11T03:21:17.161Z,80.65
2018-05-11T03:22:17.144Z,80.48
2018-05-11T03:23:17.143Z,80.65
2018-05-11T03:24:17.158Z,80.71
2018-05-11T03:25:17.147Z,80.31
2018-05-11T03:26:17.227Z,80.35
2018-05-11T03:27:17.351Z,80.73
2018-05-11T03:28:17.167Z,80.85
2018-05-11T03:29:17.165Z,80.69
2018-05-11T03:30:17.174Z,80.9
2018-05-11T03:31:17.167Z,80.63
2018-05-11T03:32:17.167Z,80.81
2018-05-11T03:33:17.275Z,80.71
2018-05-11T03:34:17.164Z,80.58
2018-05-11T03:35:17.123Z,80.42
2018-05-11T03:36:17.186Z,80.25
2018-05-11T03:37:17.140Z,80.22
2018-05-11T03:38:17.140Z,80.21
2018-05-11T03:39:17.185Z,80.43
2018-05-11T03:40:17.154Z,80.39
2018-05-11T03:41:17.168Z,80.68
2018-05-11T03:42:17.229Z,80.26
2018-05-11T03:43:17.177Z,80.38
2018-05-11T03:44:17.179Z,80.45
2018-05-11T03:45:17.210Z,80.13
2018-05-11T03:46:17.174Z,80.17
2018-05-11T03:47:17.157Z,80.59
2018-05-11T03:48:17.165Z,80.6
2018-05-11T03:49:17.184Z,80.6
2018-05-11T03:50:17.144Z,80.61
2018-05-11T03:51:17.161Z,80.79
2018-05-11T03:52:17.181Z,80.85
2018-05-11T03:53:17.148Z,80.7
2018-05-11T03:54:17.156Z,80.51
2018-05-11T03:55:17.211Z,80.36
2018-05-11T03:56:17.155Z,80.46
2018-05-11T03:57:17.164Z,80.4
2018-05-11T03:58:17.171Z,80.33
2018-05-11T03:59:17.183Z,80.11
2018-05-11T04:00:17.155Z,80.18
2018-05-11T04:01:17.176Z,80.13
2018-05-11T04:02:17.201Z,80.06
2018-05-11T04:03:17.186Z,80.11
2018-05-11T04:04:17.187Z,80.35
2018-05-11T04:05:17.171Z,80.53
2018-05-11T04:06:17.183Z,80.35
2018-05-11T04:07:17.188Z,80.42
2018-05-11T04:08:17.150Z,80.59
2018-05-11T04:09:17.225Z,80.35
2018-05-11T04:10:17.192Z,80.83
2018-05-11T04:11:17.169Z,80.8
2018-05-11T04:12:17.164Z,80.4
2018-05-11T04:13:17.569Z,80.29
2018-05-11T04:14:17.248Z,80.24
2018-05-11T04:15:17.193Z,80.38
2018-05-11T04:16:17.213Z,80.08
2018-05-11T04:17:17.176Z,80.52
2018-05-11T04:18:17.281Z,80.31
2018-05-11T04:19:17.469Z,80.38
2018-05-11T04:20:17.196Z,80.64
2018-05-11T04:21:17.144Z,80.5
2018-05-11T04:22:17.167Z,80.25
2018-05-11T04:23:17.194Z,80.44
2018-05-11T04:24:17.230Z,80.3
2018-05-11T04:25:17.213Z,80.32
2018-05-11T04:26:17.231Z,80.24
2018-05-11T04:27:17.177Z,80.29
2018-05-11T04:28:17.171Z,80.36
2018-05-11T04:29:17.173Z,80.63
2018-05-11T04:30:17.288Z,80.41
2018-05-11T04:31:17.184Z,81.09
2018-05-11T04:32:17.207Z,81.02
2018-05-11T04:33:17.159Z,80.6
2018-05-11T04:34:17.190Z,80.57
2018-05-11T04:35:17.251Z,80.54
2018-05-11T04:36:17.160Z,81.06
2018-05-11T04:37:17.290Z,80.73
2018-05-11T04:38:17.175Z,80.59
2018-05-11T04:39:17.155Z,80.38
2018-05-11T04:40:17.204Z,80.76
2018-05-11T04:41:17.176Z,80.57
2018-05-11T04:42:17.204Z,80.98
2018-05-11T04:43:17.175Z,80.84
2018-05-11T04:44:17.182Z,80.58
2018-05-11T04:45:17.186Z,81.26
2018-05-11T04:46:17.181Z,81.3
2018-05-11T04:47:17.201Z,81.29
2018-05-11T04:48:17.187Z,81.02
2018-05-11T04:49:17.193Z,81.24
2018-05-11T04:50:17.575Z,81.04
2018-05-11T04:51:17.175Z,81.39
2018-05-11T04:52:17.242Z,81.13
2018-05-11T04:53:17.200Z,80.91
2018-05-11T04:54:17.215Z,80.64
2018-05-11T04:55:17.300Z,80.88
2018-05-11T04:56:17.164Z,81.23
2018-05-11T04:57:17.205Z,81.13
2018-05-11T04:58:17.178Z,81.03
2018-05-11T04:59:17.170Z,80.75
2018-05-11T05:00:17.209Z,80.64
2018-05-11T05:01:17.245Z,81.03
2018-05-11T05:02:17.398Z,80.64
2018-05-11T05:03:17.168Z,80.7
2018-05-11T05:04:17.201Z,80.67
2018-05-11T05:05:17.187Z,80.82
2018-05-11T05:06:17.193Z,80.69
2018-05-11T05:07:17.238Z,80.79
2018-05-11T05:08:17.206Z,80.91
2018-05-11T05:09:17.173Z,80.37
2018-05-11T05:10:17.202Z,80.39
2018-05-11T05:11:17.211Z,80.4
2018-05-11T05:12:17.238Z,80.87
2018-05-11T05:13:17.175Z,80.79
2018-05-11T05:14:17.347Z,80.39
2018-05-11T05:15:17.235Z,80.92
2018-05-11T05:16:17.240Z,80.49
2018-05-11T05:17:17.208Z,80.67
2018-05-11T05:18:17.251Z,80.49
2018-05-11T05:19:17.180Z,80.92
2018-05-11T05:20:17.291Z,81.21
2018-05-11T05:21:17.191Z,80.83
2018-05-11T05:22:17.218Z,81.27
2018-05-11T05:23:17.186Z,80.81
2018-05-11T05:24:17.247Z,80.85
2018-05-11T05:25:17.211Z,80.71
2018-05-11T05:26:17.183Z,80.57
2018-05-11T05:27:17.186Z,80.42
2018-05-11T05:28:17.207Z,80.72
2018-05-11T05:29:17.289Z,80.91
2018-05-11T05:30:17.223Z,81.09
2018-05-11T05:31:17.195Z,80.62
2018-05-11T05:32:17.223Z,80.52
2018-05-11T05:33:17.263Z,80.73
2018-05-11T05:34:17.195Z,80.71
2018-05-11T05:35:17.186Z,80.36
2018-05-11T05:36:17.210Z,80.37
2018-05-11T05:37:17.241Z,80.61
2018-05-11T05:38:17.193Z,81.04
2018-05-11T05:39:17.281Z,80.72
2018-05-11T05:40:17.203Z,81.33
2018-05-11T05:41:17.212Z,81.47
2018-05-11T05:42:17.539Z,81.58
2018-05-11T05:43:17.334Z,81.29
2018-05-11T05:44:17.236Z,81.29
2018-05-11T05:45:17.203Z,81.59
2018-05-11T05:46:17.252Z,81.56
2018-05-11T05:47:17.251Z,81.25
2018-05-11T05:48:17.243Z,81.53
2018-05-11T05:49:17.225Z,81.13
2018-05-11T05:50:17.229Z,80.99
2018-05-11T05:51:17.259Z,81.38
2018-05-11T05:52:17.231Z,81.64
2018-05-11T05:53:17.250Z,81.25
2018-05-11T05:54:17.259Z,81.15
2018-05-11T05:55:17.214Z,81.15
2018-05-11T05:56:17.217Z,80.99
2018-05-11T05:57:17.213Z,80.89
2018-05-11T05:58:17.218Z,81.48
2018-05-11T05:59:17.232Z,81.04
2018-05-11T06:00:17.259Z,81.27
2018-05-11T06:01:17.234Z,81.23
2018-05-11T06:02:17.248Z,81.06
2018-05-11T06:03:17.236Z,80.95
2018-05-11T06:04:17.214Z,80.78
2018-05-11T06:05:17.200Z,80.91
2018-05-11T06:06:17.220Z,80.8
2018-05-11T06:07:17.594Z,80.82
2018-05-11T06:08:17.288Z,81.27
2018-05-11T06:09:17.202Z,81.04
2018-05-11T06:10:17.227Z,81.01
2018-05-11T06:11:17.411Z,81.51
2018-05-11T06:12:17.239Z,81.29
2018-05-11T06:13:17.218Z,81
2018-05-11T06:14:17.248Z,80.93
2018-05-11T06:15:17.215Z,81.07
2018-05-11T06:16:17.229Z,80.86
2018-05-11T06:17:17.284Z,80.76
2018-05-11T06:18:17.224Z,81.04
2018-05-11T06:19:17.251Z,81.1
2018-05-11T06:20:17.219Z,81.68
2018-05-11T06:21:17.245Z,81.71
2018-05-11T06:22:17.238Z,81.71
2018-05-11T06:23:17.270Z,81.22
2018-05-11T06:24:17.272Z,80.97
2018-05-11T06:25:17.251Z,81.22
2018-05-11T06:26:17.219Z,81.42
2018-05-11T06:27:17.246Z,80.58
2018-05-11T06:28:17.373Z,80.63
2018-05-11T06:29:17.312Z,80.55
2018-05-11T06:30:17.228Z,80.49
2018-05-11T06:31:17.235Z,80.68
2018-05-11T06:32:17.269Z,80.73
2018-05-11T06:33:17.224Z,80.32
2018-05-11T06:34:17.232Z,80.24
2018-05-11T06:35:17.234Z,80.24
2018-05-11T06:36:17.238Z,79.57
2018-05-11T06:37:17.271Z,79.58
2018-05-11T06:38:17.253Z,79.34
2018-05-11T06:39:17.287Z,79.57
2018-05-11T06:40:17.228Z,78.43
2018-05-11T06:41:17.222Z,78.91
2018-05-11T06:42:17.244Z,78.79
2018-05-11T06:43:17.267Z,78.24
2018-05-11T06:44:17.237Z,77.94
2018-05-11T06:45:17.230Z,77.87
2018-05-11T06:46:17.232Z,77.95
2018-05-11T06:47:17.663Z,78.1
2018-05-11T06:48:17.245Z,78.79
2018-05-11T06:49:17.237Z,79.5
2018-05-11T06:50:17.382Z,79.66
2018-05-11T06:51:17.247Z,79.86
2018-05-11T06:52:17.287Z,79.52
2018-05-11T06:53:17.259Z,79.55
2018-05-11T06:54:17.269Z,79.21
2018-05-11T06:55:17.273Z,78.36
2018-05-11T06:56:17.227Z,78.62
2018-05-11T06:57:17.250Z,78.58
2018-05-11T06:58:17.229Z,78.46
2018-05-11T06:59:17.261Z,78.15
2018-05-11T07:00:17.372Z,78.41
2018-05-11T07:01:18.041Z,78.44
2018-05-11T07:02:17.257Z,78.63
2018-05-11T07:03:17.400Z,78.59
2018-05-11T07:04:17.303Z,78.84
2018-05-11T07:05:17.238Z,79.06
2018-05-11T07:06:17.268Z,79.12
2018-05-11T07:07:17.287Z,79.15
2018-05-11T07:08:17.234Z,79.19
2018-05-11T07:09:17.264Z,78.63
2018-05-11T07:10:17.238Z,78.7
2018-05-11T07:11:17.219Z,77.72
2018-05-11T07:12:17.256Z,78.3
2018-05-11T07:13:17.263Z,78.52
2018-05-11T07:14:17.240Z,78.21
2018-05-11T07:15:17.410Z,77.88
2018-05-11T07:16:17.236Z,77.86
2018-05-11T07:17:17.239Z,78.4
2018-05-11T07:18:17.269Z,77.9
2018-05-11T07:19:18.681Z,78.05
2018-05-11T07:20:17.239Z,77.89
2018-05-11T07:21:17.230Z,78.41
2018-05-11T07:22:17.242Z,78.29
2018-05-11T07:23:17.262Z,77.8
2018-05-11T07:24:17.238Z,77.55
2018-05-11T07:25:17.257Z,78.56
2018-05-11T07:26:17.401Z,78.57
2018-05-11T07:27:17.673Z,78.22
2018-05-11T07:28:17.317Z,78.21
2018-05-11T07:29:17.390Z,77.95
2018-05-11T07:30:17.247Z,77.73
2018-05-11T07:31:17.237Z,77.99
2018-05-11T07:32:17.257Z,77.24
2018-05-11T07:33:17.275Z,77.56
2018-05-11T07:34:17.247Z,77.71
2018-05-11T07:35:17.242Z,77.84
2018-05-11T07:36:17.278Z,77.98
2018-05-11T07:37:17.281Z,79.01
2018-05-11T07:38:17.272Z,78.52
2018-05-11T07:39:17.335Z,78.68
2018-05-11T07:40:17.273Z,78.62
2018-05-11T07:41:17.270Z,78.48
2018-05-11T07:42:17.278Z,78.08
2018-05-11T07:43:17.382Z,78.01
2018-05-11T07:44:17.294Z,77.21
2018-05-11T07:45:17.262Z,77
2018-05-11T07:46:17.281Z,77.48
2018-05-11T07:47:17.323Z,77.55
2018-05-11T07:48:17.298Z,78.05
2018-05-11T07:49:17.328Z,78.59
2018-05-11T07:50:17.273Z,77.73
2018-05-11T07:51:17.316Z,77.9
2018-05-11T07:52:17.268Z,76.96
2018-05-11T07:53:17.368Z,77.04
2018-05-11T07:54:17.329Z,77.22
2018-05-11T07:55:17.302Z,77.02
2018-05-11T07:56:17.314Z,76.54
2018-05-11T07:57:17.441Z,77.1
2018-05-11T07:58:17.289Z,75.33
2018-05-11T07:59:17.292Z,74.96
2018-05-11T08:00:17.327Z,74.63
2018-05-11T08:01:17.309Z,75.64
2018-05-11T08:02:17.327Z,75.38
2018-05-11T08:03:17.275Z,75.83
2018-05-11T08:04:17.330Z,75.84
2018-05-11T08:05:17.404Z,76.1
2018-05-11T08:06:17.279Z,76.62
2018-05-11T08:07:17.625Z,76.17
2018-05-11T08:08:17.319Z,75.82
2018-05-11T08:09:17.402Z,75.73
2018-05-11T08:10:17.283Z,75.08
2018-05-11T08:11:17.386Z,75.41
2018-05-11T08:12:17.321Z,74.28
2018-05-11T08:13:17.314Z,74.89
2018-05-11T08:14:17.425Z,75.29
2018-05-11T08:15:17.323Z,75.72
2018-05-11T08:16:17.292Z,75.02
2018-05-11T08:17:17.289Z,74.64
2018-05-11T08:18:17.298Z,75.3
2018-05-11T08:19:17.295Z,75.06
2018-05-11T08:20:17.296Z,74.42
2018-05-11T08:21:17.338Z,74
2018-05-11T08:22:17.301Z,74.24
2018-05-11T08:23:17.300Z,73.63
2018-05-11T08:24:17.304Z,74.16
2018-05-11T08:25:17.309Z,74.56
2018-05-11T08:26:17.342Z,74.18
2018-05-11T08:27:17.287Z,73.85
2018-05-11T08:28:17.307Z,72.5
2018-05-11T08:29:17.322Z,72.6
2018-05-11T08:30:17.296Z,73.19
2018-05-11T08:31:17.314Z,73.76
2018-05-11T08:32:17.312Z,73.45
2018-05-11T08:33:17.347Z,73.55
2018-05-11T08:34:17.294Z,74.23
2018-05-11T08:35:17.343Z,73.17
2018-05-11T08:36:17.327Z,73.55
2018-05-11T08:37:17.308Z,73.09
2018-05-11T08:38:17.354Z,73.44
2018-05-11T08:39:17.359Z,73.82
2018-05-11T08:40:17.314Z,73.35
2018-05-11T08:41:17.328Z,73.94
2018-05-11T08:42:17.431Z,72.99
2018-05-11T08:43:17.306Z,73.02
2018-05-11T08:44:17.323Z,73.49
2018-05-11T08:45:17.296Z,73.68
2018-05-11T08:46:17.607Z,73.73
2018-05-11T08:47:17.293Z,73.48
2018-05-11T08:48:17.776Z,71.52
2018-05-11T08:49:17.927Z,71.55
2018-05-11T08:50:17.326Z,70.74
2018-05-11T08:51:17.357Z,69.11
2018-05-11T08:52:17.292Z,69.89
2018-05-11T08:53:17.317Z,68.71
2018-05-11T08:54:17.403Z,68.56
2018-05-11T08:55:17.331Z,69.68
2018-05-11T08:56:17.321Z,68.91
2018-05-11T08:57:17.473Z,67.69
2018-05-11T08:58:17.313Z,66.89
2018-05-11T08:59:17.315Z,65.27
2018-05-11T09:00:17.368Z,66.11
2018-05-11T09:01:17.319Z,66.66
2018-05-11T09:02:17.336Z,65.88
2018-05-11T09:03:17.314Z,67.34
2018-05-11T09:04:17.320Z,68.65
2018-05-11T09:05:17.346Z,68.36
2018-05-11T09:06:17.309Z,68.07
2018-05-11T09:07:17.339Z,68.38
2018-05-11T09:08:17.328Z,66.97
2018-05-11T09:09:17.370Z,68.04
2018-05-11T09:10:17.310Z,66.45
2018-05-11T09:11:17.304Z,67.53
2018-05-11T09:12:17.321Z,66.73
2018-05-11T09:13:17.319Z,67.23
2018-05-11T09:14:17.327Z,67.85
2018-05-11T09:15:17.326Z,67.54
2018-05-11T09:16:17.308Z,66.67
2018-05-11T09:17:17.353Z,68
2018-05-11T09:18:17.385Z,67.16
2018-05-11T09:19:17.307Z,68.53
2018-05-11T09:20:17.305Z,67.51
2018-05-11T09:21:17.328Z,68.41
2018-05-11T09:22:17.324Z,67.29
2018-05-11T09:23:17.343Z,67.46
2018-05-11T09:24:17.342Z,66.9
2018-05-11T09:25:17.340Z,67.31
2018-05-11T09:26:17.363Z,67.32
2018-05-11T09:27:17.336Z,66.91
2018-05-11T09:28:17.364Z,65.28
2018-05-11T09:29:17.372Z,65.29
2018-05-11T09:30:17.351Z,65.78
2018-05-11T09:31:18.404Z,66.16
2018-05-11T09:32:17.293Z,65.51
2018-05-11T09:33:17.316Z,65.91
2018-05-11T09:34:17.314Z,65.14
2018-05-11T09:35:17.329Z,64.26
2018-05-11T09:36:17.332Z,62.07
2018-05-11T09:37:17.331Z,62.53
2018-05-11T09:38:17.335Z,62.72
2018-05-11T09:39:17.339Z,62.8
2018-05-11T09:40:17.351Z,62.76
2018-05-11T09:41:17.342Z,62.52
2018-05-11T09:42:17.361Z,63.91
2018-05-11T09:43:17.335Z,63.62
2018-05-11T09:44:17.333Z,64.09
2018-05-11T09:45:17.708Z,64.72
2018-05-11T09:46:17.416Z,64.86
2018-05-11T09:47:17.428Z,63.87
2018-05-11T09:48:17.328Z,62.97
2018-05-11T09:49:17.323Z,60.74
2018-05-11T09:50:17.320Z,61.99
2018-05-11T09:51:17.325Z,63.57
2018-05-11T09:52:17.653Z,63.25
2018-05-11T09:53:17.363Z,64.52
2018-05-11T09:54:17.378Z,64.57
2018-05-11T09:55:17.344Z,63.41
2018-05-11T09:56:17.352Z,63.52
2018-05-11T09:57:17.429Z,62.22
2018-05-11T09:58:17.423Z,62.09
2018-05-11T09:59:17.338Z,62.98
2018-05-11T10:00:17.354Z,63.18
2018-05-11T10:01:17.364Z,63.18
2018-05-11T10:02:17.378Z,61.69
2018-05-11T10:03:17.319Z,61.44
2018-05-11T10:04:17.329Z,62.42
2018-05-11T10:05:17.384Z,63.9
2018-05-11T10:06:17.325Z,62.76
2018-05-11T10:07:17.341Z,63.19
2018-05-11T10:08:17.345Z,63.43
2018-05-11T10:09:17.328Z,61.69
2018-05-11T10:10:17.354Z,61.98
2018-05-11T10:11:17.352Z,62.62
2018-05-11T10:12:17.411Z,63.65
2018-05-11T10:13:17.335Z,63.01
2018-05-11T10:14:17.336Z,62.6
2018-05-11T10:15:17.344Z,60.56
2018-05-11T10:16:17.336Z,62.63
2018-05-11T10:17:17.357Z,63.12
2018-05-11T10:18:17.345Z,63.31
2018-05-11T10:19:17.387Z,61.19
2018-05-11T10:20:17.386Z,61.24
2018-05-11T10:21:17.330Z,61.83
2018-05-11T10:22:17.332Z,60.99
2018-05-11T10:23:17.340Z,60.3
2018-05-11T10:24:17.368Z,61.82
2018-05-11T10:25:17.356Z,60.21
2018-05-11T10:26:17.399Z,59.96
2018-05-11T10:27:17.357Z,60.04
2018-05-11T10:28:17.360Z,59.54
2018-05-11T10:29:17.361Z,60.31
2018-05-11T10:30:17.348Z,59.72
2018-05-11T10:31:17.355Z,59.71
2018-05-11T10:32:17.350Z,60.74
2018-05-11T10:33:17.364Z,60.37
2018-05-11T10:34:17.323Z,60.21
2018-05-11T10:35:17.429Z,59.93
2018-05-11T10:36:17.377Z,59.19
2018-05-11T10:37:17.345Z,58.98
2018-05-11T10:38:17.349Z,57.35
2018-05-11T10:39:17.347Z,57.41
2018-05-11T10:40:17.399Z,57.1
2018-05-11T10:41:17.357Z,58.3
2018-05-11T10:42:17.353Z,59.01
2018-05-11T10:43:17.380Z,58.89
2018-05-11T10:44:17.345Z,59.7
2018-05-11T10:45:17.396Z,60.01
2018-05-11T10:46:17.626Z,59.56
2018-05-11T10:47:17.346Z,60.05
2018-05-11T10:48:17.374Z,59.81
2018-05-11T10:49:17.349Z,58.8
2018-05-11T10:50:17.427Z,59.3
2018-05-11T10:51:17.353Z,58.64
2018-05-11T10:52:17.410Z,60.26
2018-05-11T10:53:17.353Z,60.43
2018-05-11T10:54:17.417Z,60
2018-05-11T10:55:17.354Z,60.51
2018-05-11T10:56:17.356Z,59.53
2018-05-11T10:57:17.432Z,58.78
2018-05-11T10:58:17.397Z,58.68
2018-05-11T10:59:17.650Z,59.19
2018-05-11T11:00:17.396Z,59.74
2018-05-11T11:01:17.436Z,59.46
2018-05-11T11:02:17.386Z,60.81
2018-05-11T11:03:17.434Z,57.87
2018-05-11T11:04:17.401Z,58.28
2018-05-11T11:05:17.371Z,59.3
2018-05-11T11:06:17.453Z,58.69
2018-05-11T11:07:17.487Z,58.92
2018-05-11T11:08:17.379Z,58.93
2018-05-11T11:09:17.364Z,56.69
2018-05-11T11:10:17.397Z,55.19
2018-05-11T11:11:17.369Z,56.23
2018-05-11T11:12:17.363Z,55.36
2018-05-11T11:13:17.373Z,54.56
2018-05-11T11:14:17.635Z,56.39
2018-05-11T11:15:17.376Z,55.19
2018-05-11T11:16:17.409Z,55.56
2018-05-11T11:17:17.395Z,55.42
2018-05-11T11:18:17.487Z,55.06
2018-05-11T11:19:17.420Z,54.94
2018-05-11T11:20:17.372Z,55.49
2018-05-11T11:21:17.541Z,54.69
2018-05-11T11:22:17.374Z,55.41
2018-05-11T11:23:17.359Z,54.76
2018-05-11T11:24:17.361Z,54.72
2018-05-11T11:25:17.466Z,54.17
2018-05-11T11:26:18.506Z,54.38
2018-05-11T11:27:17.594Z,53.55
2018-05-11T11:28:17.493Z,53.32
2018-05-11T11:29:17.612Z,51.9
2018-05-11T11:30:17.404Z,53.25
2018-05-11T11:31:17.389Z,54.17
2018-05-11T11:32:17.519Z,53.59
2018-05-11T11:33:17.537Z,53.06
2018-05-11T11:34:19.759Z,52.63
2018-05-11T11:35:17.540Z,52.35
2018-05-11T11:36:17.380Z,51.26
2018-05-11T11:37:17.548Z,52.14
2018-05-11T11:38:17.456Z,51.84
2018-05-11T11:39:17.567Z,51.67
2018-05-11T11:40:17.583Z,52.55
2018-05-11T11:41:17.545Z,53.17
2018-05-11T11:42:17.617Z,52.46
2018-05-11T11:43:17.400Z,52.85
2018-05-11T11:44:17.395Z,52.67
2018-05-11T11:45:17.606Z,49.38
2018-05-11T11:46:17.508Z,49.7
2018-05-11T11:47:17.521Z,50.68
2018-05-11T11:48:17.539Z,50.47
2018-05-11T11:49:17.532Z,49.57
2018-05-11T11:50:17.545Z,50.76
2018-05-11T11:51:17.549Z,50.36
2018-05-11T11:52:17.392Z,50
2018-05-11T11:53:17.559Z,50.45
2018-05-11T11:54:17.588Z,49.88
2018-05-11T11:55:17.470Z,50.01
2018-05-11T11:56:17.558Z,49.26
2018-05-11T11:57:17.495Z,50.85
2018-05-11T11:58:17.596Z,50.14
2018-05-11T11:59:17.608Z,49.41
2018-05-11T12:00:17.508Z,50.24
2018-05-11T12:01:17.510Z,50.2
2018-05-11T12:02:17.409Z,50.06
2018-05-11T12:03:17.430Z,50.15
2018-05-11T12:04:17.634Z,49.87
2018-05-11T12:05:17.561Z,50.42
2018-05-11T12:06:18.578Z,48.71
2018-05-11T12:07:19.615Z,48.14
2018-05-11T12:08:17.471Z,49.33
2018-05-11T12:09:17.566Z,49.69
2018-05-11T12:10:17.471Z,49.79
2018-05-11T12:11:17.395Z,48.86
2018-05-11T12:12:17.645Z,50.4
2018-05-11T12:13:17.399Z,49.16
2018-05-11T12:14:17.606Z,48.86
2018-05-11T12:15:17.626Z,48.2
2018-05-11T12:16:17.496Z,48.8
2018-05-11T12:17:17.649Z,49.37
2018-05-11T12:18:17.556Z,47.82
2018-05-11T12:19:17.534Z,48.61
2018-05-11T12:20:17.645Z,46.75
2018-05-11T12:21:17.551Z,46.06
2018-05-11T12:22:17.419Z,46.32
2018-05-11T12:23:17.668Z,46.14
2018-05-11T12:24:17.574Z,45.16
2018-05-11T12:25:17.583Z,44.87
2018-05-11T12:26:17.555Z,44.49
2018-05-11T12:27:17.487Z,44.6
2018-05-11T12:28:17.596Z,45.73
2018-05-11T12:29:18.527Z,45.95
2018-05-11T12:30:17.510Z,46.48
2018-05-11T12:31:17.437Z,46.24
2018-05-11T12:32:17.435Z,44.04
2018-05-11T12:33:17.588Z,44.82
2018-05-11T12:34:17.444Z,45.54
2018-05-11T12:35:17.412Z,46.58
2018-05-11T12:36:17.429Z,44.72
2018-05-11T12:37:17.426Z,44.78
2018-05-11T12:38:17.434Z,44.24
2018-05-11T12:39:17.680Z,44.91
2018-05-11T12:40:17.433Z,45.41
2018-05-11T12:41:17.447Z,45.32
2018-05-11T12:42:17.414Z,45.49
2018-05-11T12:43:17.446Z,45.42
2018-05-11T12:44:17.459Z,46.12
2018-05-11T12:45:17.431Z,46.48
2018-05-11T12:46:17.417Z,45.94
2018-05-11T12:47:17.443Z,46.04
2018-05-11T12:48:17.439Z,46.88
2018-05-11T12:49:17.434Z,45.45
2018-05-11T12:50:17.467Z,45.35
2018-05-11T12:51:17.437Z,45.67
2018-05-11T12:52:17.455Z,45.71
2018-05-11T12:53:17.454Z,45.13
2018-05-11T12:54:17.581Z,44.51
2018-05-11T12:55:17.487Z,44.96
2018-05-11T12:56:17.427Z,45.53